Flight Track Log - Related Links

Times and Time Zones

All times are in EDT time to prevent confusion due to time zone crossing. See the RPA4907 flight status page for this flight to view local times or setup timezone preferences in your user account.

Time Position Orientation Groundspeed Altitude Reporting Facility
EDT Latitude Longitude Course Direction KTS MPH feet Rate Location/Type
Fri 10:19:27 AM 38.9833 -77.5500 North 201 231 3,400  Level Potomac TRACON
Fri 10:20:27 AM 39.0333 -77.5500 360° North 206 237 6,000 2,381 Climbing Potomac TRACON
Fri 10:21:00 AM 39.3316 -77.4500 North  Level FlightAware Approximate
Fri 10:21:33 AM 39.1000 -77.5500 360° North 205 236 8,400  Level Potomac TRACON
Fri 10:22:00 AM 39.4312 -77.4500 North  Level FlightAware Approximate
Fri 10:23:00 AM 39.5307 -77.4500 North  Level FlightAware Approximate
Fri 10:23:44 AM 39.2231 -77.5286 North 221 254 11,700  Level Washington Center
Fri 10:24:00 AM 39.6303 -77.4500 North  Level FlightAware Approximate
Fri 10:24:45 AM 39.2900 -77.5169 North 221 254 13,400  Level Washington Center
Fri 10:25:43 AM 39.3567 -77.5053 North 227 261 14,700 1,311 Climbing Washington Center
Fri 10:26:44 AM 39.4278 -77.4939 North 238 274 16,000 2,862 Climbing Washington Center
Fri 10:28:37 AM 39.5836 -77.4653 North 295 339 23,000 1,103 Climbing New York Center
Fri 10:29:38 AM 39.6636 -77.4542 North 295 339 19,200 -1,412 Descending New York Center
Fri 10:30:36 AM 39.7428 -77.4536 360° North 295 339 20,200 966 Climbing New York Center
Fri 10:31:36 AM 39.8261 -77.4533 360° North 295 339 21,100 843 Climbing New York Center
Fri 10:32:37 AM 39.9075 -77.4531 360° North 295 339 21,900 807 Climbing New York Center
Fri 10:33:35 AM 39.9908 -77.4528 360° North 295 339 22,700 555 Climbing New York Center
Fri 10:34:36 AM 40.0744 -77.4500 North 295 339 23,000 149 Climbing New York Center
Fri 10:35:36 AM 40.1669 -77.4397 North 310 357 23,000 443 Level New York Center
Fri 10:36:38 AM 40.2553 -77.3858 25° Northeast 333 383 23,900 700 Climbing New York Center
Fri 10:37:36 AM 40.3375 -77.3336 26° Northeast 327 376 24,400 458 Climbing New York Center
Fri 10:38:36 AM 40.4111 -77.2861 26° Northeast 322 371 24,800 295 Climbing New York Center
Fri 10:39:38 AM 40.4953 -77.2339 25° Northeast 327 376 25,000 99 Climbing New York Center
Fri 10:40:37 AM 40.5858 -77.1769 26° Northeast 338 389 25,000  Level New York Center
Fri 10:41:38 AM 40.6744 -77.1194 26° Northeast 344 396 25,000  Level New York Center
Fri 10:42:35 AM 40.7653 -77.0594 27° Northeast 355 409 25,000  Level New York Center
Fri 10:43:38 AM 40.8517 -77.0014 27° Northeast 355 409 25,000  Level New York Center
Fri 10:44:36 AM 40.9400 -76.9464 25° Northeast 355 409 25,000  Level New York Center
Fri 10:45:36 AM 41.0283 -76.8883 26° Northeast 355 409 25,000  Level New York Center
Fri 10:46:37 AM 41.1144 -76.8356 25° Northeast 355 409 25,000  Level New York Center
Fri 10:47:38 AM 41.2031 -76.7744 27° Northeast 355 409 25,000  Level New York Center
Fri 10:48:36 AM 41.2914 -76.7161 26° Northeast 355 409 25,000  Level New York Center
Fri 10:49:37 AM 41.3817 -76.6578 26° Northeast 355 409 25,000  Level New York Center
Fri 10:50:37 AM 41.4761 -76.5994 25° Northeast 355 409 25,000  Level New York Center
Fri 10:51:38 AM 41.5667 -76.5381 27° Northeast 355 409 25,000  Level New York Center
Fri 10:52:38 AM 41.6658 -76.4717 27° Northeast 355 409 25,000  Level New York Center
Fri 10:53:36 AM 41.7561 -76.4097 27° Northeast 355 409 25,000  Level New York Center
Fri 10:56:01 AM 41.9689 -76.2658 27° Northeast 369 425 25,000 -59 Level Boston Center
Fri 10:57:01 AM 42.0586 -76.2042 27° Northeast 364 419 24,800 -450 Descending Boston Center
Fri 10:58:01 AM 42.1567 -76.1344 28° Northeast 364 419 24,100 -700 Descending Boston Center
Fri 10:59:01 AM 42.2064 -76.0142 61° Northeast 343 395 23,400 -950 Descending Boston Center
Fri 11:00:01 AM 42.2461 -75.8817 68° East 348 400 22,200 -1,250 Descending Boston Center
Fri 11:01:01 AM 42.2750 -75.7514 73° East 359 413 20,900 -1,200 Descending Boston Center
Fri 11:02:01 AM 42.3033 -75.6350 72° East 359 413 19,800 -1,050 Descending Boston Center
Fri 11:03:01 AM 42.3358 -75.5103 71° East 359 413 18,800 -650 Descending Boston Center
Fri 11:04:01 AM 42.3617 -75.4103 71° East 359 413 18,500 -900 Descending Boston Center
Fri 11:05:01 AM 42.3989 -75.2572 72° East 354 407 17,000 -1,250 Descending Boston Center
Fri 11:06:01 AM 42.4311 -75.1267 71° East 354 407 16,000 -950 Descending Boston Center
Fri 11:07:01 AM 42.4611 -75.0011 72° East 354 407 15,100 -950 Descending Boston Center
Fri 11:08:01 AM 42.4931 -74.8731 71° East 354 407 14,100 -950 Descending Boston Center
Fri 11:09:01 AM 42.5228 -74.7444 73° East 359 413 13,200 -950 Descending Boston Center
Fri 11:10:01 AM 42.5547 -74.6106 72° East 351 404 12,200 -906 Descending Boston Center
Fri 11:10:47 AM 42.5772 -74.5267 70° East 327 376 11,600 -906 Descending Boston Center
Fri 11:11:47 AM 42.6042 -74.4119 72° East 323 372 10,600 -1,190 Descending Boston Center
Fri 11:12:48 AM 42.6292 -74.2969 74° East 316 364 9,200 -1,426 Descending Boston Center
Fri 11:13:49 AM 42.6600 -74.1822 70° East 299 344 7,700 -1,339 Descending Boston Center
Fri 11:14:49 AM 42.6844 -74.0839 71° East 278 320 6,500 -1,488 Descending Boston Center
Fri 11:15:50 AM 42.7275 -73.9947 57° Northeast 266 306 4,700 -1,513 Descending Boston Center
Fri 11:16:44 AM 42.7617 -73.9192 58° Northeast 255 293 3,600 -1,148 Descending Boston Center
Fri 11:17:45 AM 42.8225 -73.9036 11° North 234 269 2,500 -1,082 Descending Boston Center

Login

Don't have an account? Register now (free) for customized features, flight alerts, and more!